Time;durP1;ratioP1;P1;durP2;ratioP2;P2;SDS_P1;SDS_P2;PMS_P1;PMS_P2;Temp;Humidity;BMP_temperature;BMP_pressure;BME280_temperature;BME280_humidity;BME280_pressure;Samples;Min_cycle;Max_cycle;Signal;HPM_P1;HPM_P2
2021/12/08 00:02:16;;;;;;;2.55;0.90;;;19.20;54.00;;;;;;6176613;22;92215;-60
2021/12/08 00:04:43;;;;;;;3.30;1.00;;;19.10;54.00;;;;;;6176383;22;92673;-66
2021/12/08 00:07:09;;;;;;;2.65;0.80;;;19.10;54.10;;;;;;6175978;22;91411;-63
2021/12/08 00:14:53;;;;;;;3.65;0.80;;;19.10;54.20;;;;;;6175465;22;93880;-64
2021/12/08 00:17:19;;;;;;;3.53;0.82;;;19.10;54.30;;;;;;6175554;22;92508;-67
2021/12/08 00:19:45;;;;;;;3.08;0.75;;;19.10;54.30;;;;;;6176123;22;93140;-66
2021/12/08 00:22:10;;;;;;;1.67;0.82;;;19.00;54.30;;;;;;6175069;22;95839;-65
2021/12/08 00:24:36;;;;;;;3.00;1.10;;;19.10;54.30;;;;;;6176500;22;92318;-64
2021/12/08 00:27:02;;;;;;;5.95;0.93;;;19.00;54.40;;;;;;6177397;22;92940;-64
2021/12/08 00:29:28;;;;;;;2.83;0.70;;;19.10;54.40;;;;;;6176158;22;92873;-64
2021/12/08 00:31:53;;;;;;;3.88;0.95;;;19.10;54.50;;;;;;6176442;22;92711;-61
2021/12/08 00:34:19;;;;;;;2.45;0.90;;;19.10;54.60;;;;;;6175209;22;92723;-66
2021/12/08 00:36:49;;;;;;;2.95;0.75;;;19.00;54.50;;;;;;6174429;22;92096;-66
2021/12/08 00:39:14;;;;;;;4.50;0.70;;;19.00;54.50;;;;;;6174160;22;93308;-60
2021/12/08 00:41:40;;;;;;;4.35;0.70;;;19.00;54.60;;;;;;6175744;22;93554;-64
2021/12/08 00:44:07;;;;;;;1.63;0.63;;;19.00;54.60;;;;;;6175925;22;92519;-66
2021/12/08 00:46:33;;;;;;;2.83;0.55;;;19.00;54.60;;;;;;6174053;22;92405;-64
2021/12/08 00:48:59;;;;;;;2.17;0.60;;;19.00;54.70;;;;;;6174648;22;96153;-62
2021/12/08 00:51:25;;;;;;;3.38;1.00;;;19.00;54.60;;;;;;6174587;22;92530;-67
2021/12/08 00:53:51;;;;;;;1.75;0.80;;;19.00;54.60;;;;;;6175224;22;92723;-62
2021/12/08 00:56:16;;;;;;;3.90;0.77;;;19.00;54.70;;;;;;6176044;22;91768;-66
2021/12/08 00:58:42;;;;;;;4.68;0.68;;;18.90;54.70;;;;;;6174496;22;93126;-66
2021/12/08 01:01:08;;;;;;;1.58;0.60;;;19.00;54.70;;;;;;6175672;22;92751;-64
2021/12/08 01:03:36;;;;;;;3.30;0.90;;;18.90;54.70;;;;;;6174866;22;93839;-67
2021/12/08 01:06:03;;;;;;;2.85;0.80;;;18.90;54.70;;;;;;6176056;22;92277;-64
2021/12/08 01:08:30;;;;;;;2.30;0.63;;;18.90;54.80;;;;;;6176179;22;93238;-58
2021/12/08 01:11:02;;;;;;;2.97;0.60;;;18.90;54.80;;;;;;6176026;22;92712;-67
2021/12/08 01:13:28;;;;;;;3.47;0.80;;;18.90;54.80;;;;;;6176079;22;92789;-62
2021/12/08 01:15:56;;;;;;;3.28;1.17;;;18.90;54.90;;;;;;6174656;22;92524;-64
2021/12/08 01:18:23;;;;;;;4.43;0.70;;;18.90;54.80;;;;;;6174716;22;93173;-62
2021/12/08 01:20:50;;;;;;;2.00;0.65;;;18.90;54.90;;;;;;6174748;22;92861;-62
2021/12/08 01:23:16;;;;;;;2.83;0.80;;;18.90;54.90;;;;;;6175169;22;92592;-67
2021/12/08 01:25:43;;;;;;;2.13;0.80;;;18.90;54.90;;;;;;6173375;22;92757;-61
2021/12/08 01:28:09;;;;;;;1.15;0.50;;;18.90;54.90;;;;;;6174209;22;93352;-67
2021/12/08 01:30:35;;;;;;;1.73;0.70;;;18.90;54.90;;;;;;6174401;22;93595;-67
2021/12/08 01:33:01;;;;;;;3.60;0.90;;;18.90;55.00;;;;;;6174512;22;92762;-63
2021/12/08 01:35:28;;;;;;;2.75;0.90;;;18.90;55.00;;;;;;6175444;22;92250;-59
2021/12/08 01:37:53;;;;;;;4.28;0.73;;;18.80;55.00;;;;;;6175771;22;93573;-67
2021/12/08 01:40:19;;;;;;;1.67;0.60;;;18.80;55.00;;;;;;6175572;22;92341;-65
2021/12/08 01:42:49;;;;;;;2.10;0.65;;;18.80;55.00;;;;;;6176784;22;92262;-66
2021/12/08 01:48:07;;;;;;;2.67;0.95;;;18.80;55.10;;;;;;6175614;22;93001;-66
2021/12/08 01:50:34;;;;;;;3.30;1.00;;;18.80;55.10;;;;;;6175781;22;92461;-65
2021/12/08 01:53:00;;;;;;;3.63;0.82;;;18.80;55.10;;;;;;6176006;22;93778;-67
2021/12/08 01:55:26;;;;;;;1.70;0.60;;;18.80;55.10;;;;;;6175272;22;92610;-61
2021/12/08 01:57:51;;;;;;;1.67;0.70;;;18.80;55.10;;;;;;6174623;22;93131;-64
2021/12/08 02:00:24;;;;;;;0.82;0.57;;;18.80;55.10;;;;;;6175460;22;92807;-66
2021/12/08 02:02:49;;;;;;;1.80;0.60;;;18.80;55.20;;;;;;6176685;22;92314;-69
2021/12/08 02:05:17;;;;;;;2.22;0.60;;;18.80;55.20;;;;;;6174590;22;92095;-69
2021/12/08 02:07:43;;;;;;;2.95;0.60;;;18.80;55.20;;;;;;6175693;22;92711;-58
2021/12/08 02:10:10;;;;;;;2.30;0.70;;;18.80;55.20;;;;;;6173649;22;96350;-66
2021/12/08 02:12:39;;;;;;;1.85;0.47;;;18.80;55.20;;;;;;6175598;22;92443;-62
2021/12/08 02:15:10;;;;;;;0.95;0.38;;;18.70;55.20;;;;;;6173998;22;92635;-67
2021/12/08 02:17:36;;;;;;;2.72;0.90;;;18.70;55.20;;;;;;6172894;22;95637;-66
2021/12/08 02:20:05;;;;;;;3.72;0.90;;;18.80;55.30;;;;;;6174477;22;93122;-64
2021/12/08 02:22:31;;;;;;;1.88;0.82;;;18.80;55.30;;;;;;6175007;22;92772;-61
2021/12/08 02:24:57;;;;;;;1.88;0.52;;;18.70;55.30;;;;;;6175973;22;92126;-66
2021/12/08 02:27:23;;;;;;;2.30;0.65;;;18.70;55.30;;;;;;6175418;22;92928;-67
2021/12/08 02:29:57;;;;;;;1.58;0.70;;;18.70;55.30;;;;;;6175734;22;92734;-62
2021/12/08 02:46:35;;;;;;;1.00;0.40;;;18.70;55.30;;;;;;6175001;22;93065;-68
2021/12/08 02:48:52;;;;;;;2.80;0.63;;;18.70;55.40;;;;;;6177427;22;92178;-61
2021/12/08 02:51:20;;;;;;;4.60;0.60;;;18.70;55.50;;;;;;6176981;22;92744;-66
2021/12/08 02:53:47;;;;;;;2.90;0.50;;;18.70;55.40;;;;;;6177562;22;92757;-61
2021/12/08 02:56:16;;;;;;;2.42;0.60;;;18.70;55.40;;;;;;6177031;22;92335;-64
2021/12/08 02:58:42;;;;;;;1.20;0.60;;;18.70;55.50;;;;;;6176260;22;92990;-62
2021/12/08 03:01:08;;;;;;;3.13;0.70;;;18.60;55.40;;;;;;6175766;22;92761;-62
2021/12/08 03:03:35;;;;;;;1.85;0.70;;;18.70;55.50;;;;;;6175299;22;92183;-63
2021/12/08 03:06:02;;;;;;;3.20;0.77;;;18.70;55.40;;;;;;6176989;22;92634;-65
2021/12/08 03:08:28;;;;;;;1.73;0.60;;;18.60;55.40;;;;;;6175426;22;93517;-60
2021/12/08 03:10:54;;;;;;;1.23;0.70;;;18.60;55.40;;;;;;6173973;22;93833;-61
2021/12/08 03:13:32;;;;;;;1.52;0.68;;;18.60;55.40;;;;;;6176061;22;92646;-64
2021/12/08 03:15:58;;;;;;;1.88;0.60;;;18.60;55.40;;;;;;6177594;22;92686;-65
2021/12/08 03:18:31;;;;;;;2.03;0.50;;;18.60;55.40;;;;;;6176481;22;93106;-63
2021/12/08 03:20:57;;;;;;;2.25;0.88;;;18.60;55.40;;;;;;6177070;22;92992;-65
2021/12/08 03:23:29;;;;;;;3.42;0.40;;;18.70;55.40;;;;;;6176606;22;92906;-65
2021/12/08 03:25:58;;;;;;;2.75;0.90;;;18.60;55.40;;;;;;6177818;22;91679;-66
2021/12/08 03:28:28;;;;;;;1.55;0.47;;;18.60;55.40;;;;;;6177084;22;92836;-67
2021/12/08 03:33:23;;;;;;;4.10;1.50;;;18.70;55.50;;;;;;6176304;22;93446;-66
2021/12/08 03:35:50;;;;;;;2.75;0.65;;;18.60;55.40;;;;;;6176114;22;92007;-63
2021/12/08 03:38:18;;;;;;;2.92;0.60;;;18.70;55.40;;;;;;6176081;22;93066;-61
2021/12/08 03:40:44;;;;;;;1.48;0.60;;;18.60;55.40;;;;;;6175741;22;92867;-60
2021/12/08 03:43:12;;;;;;;2.13;0.52;;;18.70;55.40;;;;;;6176021;22;92049;-65
2021/12/08 03:45:44;;;;;;;1.88;0.60;;;18.60;55.40;;;;;;6176856;22;93004;-61
2021/12/08 03:48:13;;;;;;;3.42;0.70;;;18.60;55.40;;;;;;6176390;22;93176;-65
2021/12/08 03:50:42;;;;;;;1.88;0.60;;;18.60;55.40;;;;;;6175804;22;92622;-65
2021/12/08 03:53:12;;;;;;;2.92;0.52;;;18.60;55.40;;;;;;6176210;22;92821;-63
2021/12/08 03:55:41;;;;;;;1.17;0.45;;;18.60;55.40;;;;;;6175633;22;93054;-62
2021/12/08 03:58:07;;;;;;;1.88;0.57;;;18.60;55.40;;;;;;6174982;22;96113;-66
2021/12/08 04:00:32;;;;;;;1.38;0.55;;;18.60;55.40;;;;;;6175712;22;92341;-58
2021/12/08 04:03:02;;;;;;;1.92;0.68;;;18.60;55.40;;;;;;6175686;22;92593;-63
2021/12/08 04:05:53;;;;;;;1.58;0.57;;;18.60;55.40;;;;;;6176459;22;92569;-64
2021/12/08 04:08:29;;;;;;;2.67;0.70;;;18.60;55.40;;;;;;6176478;22;92718;-64
2021/12/08 04:10:56;;;;;;;1.83;0.63;;;18.60;55.40;;;;;;6174334;22;92887;-60
2021/12/08 04:13:27;;;;;;;1.63;0.60;;;18.50;55.40;;;;;;6174938;22;92861;-67
2021/12/08 04:15:53;;;;;;;2.22;0.80;;;18.60;55.40;;;;;;6176665;22;91349;-63
2021/12/08 04:18:19;;;;;;;2.55;0.80;;;18.50;55.40;;;;;;6174901;22;93055;-60
2021/12/08 04:20:57;;;;;;;1.88;0.47;;;18.60;55.40;;;;;;6176874;22;93366;-65
2021/12/08 04:23:26;;;;;;;2.60;0.80;;;18.50;55.40;;;;;;6175717;22;93755;-63
2021/12/08 04:25:55;;;;;;;0.80;0.47;;;18.60;55.50;;;;;;6175590;22;93162;-63
2021/12/08 04:28:26;;;;;;;2.35;0.68;;;18.50;55.40;;;;;;6176082;22;93003;-65
2021/12/08 04:31:03;;;;;;;1.38;0.50;;;18.50;55.50;;;;;;6176659;22;92110;-66
2021/12/08 04:33:30;;;;;;;1.60;0.50;;;18.50;55.40;;;;;;6176137;22;92879;-67
2021/12/08 04:35:56;;;;;;;1.67;0.60;;;18.50;55.50;;;;;;6176512;22;92565;-65
2021/12/08 04:38:30;;;;;;;1.27;0.50;;;18.50;55.50;;;;;;6176362;22;92916;-66
2021/12/08 04:41:03;;;;;;;1.27;0.45;;;18.50;55.50;;;;;;6176006;22;92225;-63
2021/12/08 04:46:15;;;;;;;1.50;0.43;;;18.50;55.50;;;;;;6175063;22;92630;-64
2021/12/08 04:49:09;;;;;;;4.43;0.70;;;18.50;55.50;;;;;;6175038;22;93599;-65
2021/12/08 04:52:04;;;;;;;1.30;0.45;;;18.50;55.60;;;;;;6174888;22;94786;-62
2021/12/08 05:05:49;;;;;;;2.00;0.63;;;18.50;55.60;;;;;;6176322;22;92514;-60
2021/12/08 05:08:16;;;;;;;2.28;0.47;;;18.50;55.60;;;;;;6177087;22;92108;-65
2021/12/08 05:10:42;;;;;;;2.22;0.70;;;18.50;55.60;;;;;;6174439;22;96242;-61
2021/12/08 05:13:12;;;;;;;1.23;0.40;;;18.40;55.50;;;;;;6175342;22;92517;-64
2021/12/08 05:15:46;;;;;;;1.45;0.50;;;18.40;55.60;;;;;;6176620;22;93202;-61
2021/12/08 05:18:25;;;;;;;1.38;0.30;;;18.40;55.60;;;;;;6175799;22;92547;-68
2021/12/08 05:21:03;;;;;;;1.48;0.43;;;18.40;55.60;;;;;;6175802;22;92895;-66
2021/12/08 05:23:31;;;;;;;1.08;0.52;;;18.40;55.60;;;;;;6176134;22;92683;-61
2021/12/08 05:26:24;;;;;;;1.50;0.45;;;18.40;55.60;;;;;;6174964;22;92854;-63
2021/12/08 05:28:51;;;;;;;0.50;0.30;;;18.40;55.60;;;;;;6175315;22;92341;-65
2021/12/08 05:31:24;;;;;;;1.75;0.50;;;18.40;55.60;;;;;;6176384;22;93327;-65
2021/12/08 05:33:54;;;;;;;2.08;0.50;;;18.40;55.60;;;;;;6176298;22;95426;-64
2021/12/08 05:36:20;;;;;;;1.13;0.38;;;18.40;55.60;;;;;;6176277;22;92348;-66
2021/12/08 05:38:46;;;;;;;2.17;0.70;;;18.40;55.70;;;;;;6175165;22;92774;-66
2021/12/08 05:41:23;;;;;;;0.88;0.40;;;18.40;55.70;;;;;;6175883;22;94005;-65
2021/12/08 05:43:49;;;;;;;2.70;0.50;;;18.40;55.70;;;;;;6176274;22;93745;-66
2021/12/08 05:46:17;;;;;;;2.03;0.60;;;18.30;55.70;;;;;;6176505;22;92731;-65
2021/12/08 05:48:46;;;;;;;1.70;0.43;;;18.30;55.70;;;;;;6176441;22;92902;-66
2021/12/08 05:51:16;;;;;;;1.08;0.40;;;18.30;55.80;;;;;;6174620;22;93623;-61
2021/12/08 05:53:45;;;;;;;1.65;0.50;;;18.30;55.80;;;;;;6174625;22;93444;-65
2021/12/08 05:56:11;;;;;;;0.98;0.43;;;18.30;55.80;;;;;;6176467;22;92097;-67
2021/12/08 05:58:38;;;;;;;1.75;0.55;;;18.30;55.80;;;;;;6176127;22;91561;-66
2021/12/08 06:01:30;;;;;;;0.68;0.50;;;18.30;55.80;;;;;;6176201;22;95766;-60
2021/12/08 06:03:56;;;;;;;1.83;0.50;;;18.30;55.80;;;;;;6176362;22;92279;-65
2021/12/08 06:06:25;;;;;;;2.70;0.50;;;18.30;55.90;;;;;;6175365;22;92982;-64
2021/12/08 06:08:51;;;;;;;1.33;0.40;;;18.30;55.90;;;;;;6175783;22;92870;-64
2021/12/08 06:11:17;;;;;;;1.40;0.57;;;18.20;55.80;;;;;;6175110;22;92812;-64
2021/12/08 06:13:45;;;;;;;1.48;0.35;;;18.30;55.90;;;;;;6176609;22;93297;-67
2021/12/08 06:16:13;;;;;;;2.03;0.40;;;18.20;55.90;;;;;;6176154;22;92762;-65
2021/12/08 06:18:42;;;;;;;1.08;0.40;;;18.20;55.90;;;;;;6175863;22;92896;-62
2021/12/08 06:21:12;;;;;;;1.95;0.30;;;18.20;55.90;;;;;;6176850;22;93067;-58
2021/12/08 06:23:40;;;;;;;2.85;0.30;;;18.20;55.90;;;;;;6177254;22;92330;-63
2021/12/08 06:26:07;;;;;;;1.85;0.47;;;18.20;55.90;;;;;;6177815;22;92044;-66
2021/12/08 06:28:33;;;;;;;1.13;0.52;;;18.20;55.90;;;;;;6177109;22;92911;-67
2021/12/08 06:30:59;;;;;;;4.57;0.52;;;18.20;56.00;;;;;;6176061;22;93785;-66
2021/12/08 06:33:26;;;;;;;2.00;0.60;;;18.20;56.00;;;;;;6176461;22;93725;-61
2021/12/08 06:36:01;;;;;;;1.38;0.45;;;18.20;56.00;;;;;;6177547;22;92366;-67
2021/12/08 06:38:28;;;;;;;1.42;0.40;;;18.20;56.00;;;;;;6177399;22;92865;-65
2021/12/08 06:40:57;;;;;;;0.60;0.22;;;18.20;56.00;;;;;;6177168;22;93074;-65
2021/12/08 06:43:27;;;;;;;0.88;0.30;;;18.20;56.10;;;;;;6176886;22;92776;-64
2021/12/08 06:45:55;;;;;;;2.25;0.40;;;18.20;56.10;;;;;;6176574;22;92522;-61
2021/12/08 06:48:26;;;;;;;2.83;0.50;;;18.20;56.00;;;;;;6176457;22;91438;-63
2021/12/08 06:51:09;;;;;;;3.05;0.40;;;18.20;56.30;;;;;;6175530;22;93205;-69
2021/12/08 06:53:37;;;;;;;0.93;0.30;;;18.20;56.30;;;;;;6175990;22;92141;-66
2021/12/08 06:56:32;;;;;;;1.02;0.40;;;18.20;56.30;;;;;;6176791;22;93388;-65
2021/12/08 06:59:04;;;;;;;3.83;0.43;;;18.30;56.40;;;;;;6176330;22;92067;-62
2021/12/08 07:01:47;;;;;;;2.25;0.40;;;18.40;56.40;;;;;;6175714;22;92622;-57
2021/12/08 07:07:09;;;;;;;3.63;0.60;;;18.50;56.30;;;;;;6177537;22;92992;-70
2021/12/08 07:09:57;;;;;;;1.65;0.35;;;18.70;56.20;;;;;;6177147;22;93056;-66
2021/12/08 07:12:34;;;;;;;1.98;0.50;;;18.80;56.10;;;;;;6176546;22;93105;-64
2021/12/08 07:15:12;;;;;;;4.40;0.55;;;18.90;56.00;;;;;;6176333;22;92780;-69
2021/12/08 07:17:41;;;;;;;3.58;0.55;;;19.00;55.90;;;;;;6177000;22;92666;-67
2021/12/08 07:20:18;;;;;;;3.60;0.70;;;19.10;55.70;;;;;;6176538;22;92813;-66
2021/12/08 07:22:48;;;;;;;4.75;0.60;;;19.20;55.60;;;;;;6175160;22;93762;-64
2021/12/08 07:25:17;;;;;;;5.50;0.47;;;19.30;55.50;;;;;;6175814;22;96385;-59
2021/12/08 07:27:43;;;;;;;3.20;0.77;;;19.30;55.40;;;;;;6176769;22;92851;-59
2021/12/08 07:30:16;;;;;;;2.60;0.75;;;19.40;55.30;;;;;;6175753;22;92363;-67
2021/12/08 07:32:42;;;;;;;3.47;0.70;;;19.50;55.20;;;;;;6176927;22;93709;-65
2021/12/08 07:35:17;;;;;;;3.65;0.47;;;19.60;55.20;;;;;;6174980;22;95695;-64
2021/12/08 07:37:44;;;;;;;4.20;0.70;;;19.60;55.10;;;;;;6176558;22;92932;-58
2021/12/08 07:40:16;;;;;;;4.40;0.77;;;19.70;55.00;;;;;;6176152;22;92390;-62
2021/12/08 07:42:47;;;;;;;4.30;0.63;;;19.70;54.90;;;;;;6176613;22;92684;-58
2021/12/08 07:45:30;;;;;;;6.13;0.90;;;19.80;54.60;;;;;;6176061;22;92815;-58
2021/12/08 07:47:57;;;;;;;2.10;0.60;;;19.80;54.20;;;;;;6176529;22;93726;-62
2021/12/08 07:50:36;;;;;;;40.78;6.40;;;19.90;54.00;;;;;;6175928;22;92369;-60
2021/12/08 07:53:03;;;;;;;60.67;8.98;;;19.90;53.70;;;;;;6174892;22;93928;-64
2021/12/08 07:55:36;;;;;;;58.75;10.02;;;19.90;53.70;;;;;;6177033;22;95846;-63
2021/12/08 07:58:05;;;;;;;59.88;8.05;;;19.90;53.80;;;;;;6175523;22;92863;-61
2021/12/08 08:00:47;;;;;;;46.97;6.60;;;20.00;53.60;;;;;;6176508;22;92443;-62
2021/12/08 08:03:14;;;;;;;34.95;6.55;;;20.00;53.30;;;;;;6176985;22;92569;-63
2021/12/08 08:05:42;;;;;;;39.92;5.35;;;20.00;52.90;;;;;;6176622;22;92861;-60
2021/12/08 08:08:14;;;;;;;28.75;5.78;;;19.90;52.80;;;;;;6176637;22;92764;-58
2021/12/08 08:10:51;;;;;;;36.90;5.78;;;20.00;52.80;;;;;;6176174;22;92661;-61
2021/12/08 08:13:18;;;;;;;27.92;5.55;;;20.00;52.90;;;;;;6175973;22;93760;-63
2021/12/08 08:15:48;;;;;;;28.33;6.43;;;20.00;53.00;;;;;;6175054;22;95184;-61
2021/12/08 08:18:20;;;;;;;32.65;7.45;;;19.90;53.10;;;;;;6177157;22;92916;-64
2021/12/08 08:20:50;;;;;;;36.28;5.88;;;20.00;53.20;;;;;;6176870;22;92698;-61
2021/12/08 08:23:18;;;;;;;33.40;5.40;;;20.00;53.20;;;;;;6176054;22;93912;-59
2021/12/08 08:25:46;;;;;;;28.08;6.43;;;20.00;53.30;;;;;;6172866;22;94792;-62
2021/12/08 08:28:13;;;;;;;27.13;5.82;;;20.10;53.30;;;;;;6176672;22;92451;-63
2021/12/08 08:30:44;;;;;;;31.35;5.25;;;20.10;53.20;;;;;;6177037;22;92155;-60
2021/12/08 08:33:11;;;;;;;22.70;5.35;;;20.10;53.00;;;;;;6176438;22;92685;-63
2021/12/08 08:35:41;;;;;;;18.92;5.32;;;20.20;52.90;;;;;;6175826;22;92788;-58
2021/12/08 08:38:12;;;;;;;32.13;5.28;;;20.20;52.70;;;;;;6169507;22;93909;-59
2021/12/08 08:40:43;;;;;;;16.40;3.95;;;20.30;52.70;;;;;;6175965;22;92701;-63
2021/12/08 08:43:09;;;;;;;21.02;4.35;;;20.30;52.60;;;;;;6176184;22;93081;-62
2021/12/08 08:45:45;;;;;;;21.73;4.03;;;20.30;52.50;;;;;;6175110;22;92940;-61
2021/12/08 08:48:16;;;;;;;19.00;4.75;;;20.30;52.50;;;;;;6175403;22;92324;-63
2021/12/08 08:50:47;;;;;;;18.88;4.65;;;20.30;52.60;;;;;;6176084;22;92990;-61
2021/12/08 08:53:13;;;;;;;22.13;4.85;;;20.30;52.50;;;;;;6176781;22;93165;-60
2021/12/08 08:55:51;;;;;;;24.42;4.30;;;20.30;52.50;;;;;;6176762;22;92614;-63
2021/12/08 08:58:20;;;;;;;18.90;4.25;;;20.30;52.40;;;;;;6175139;22;92391;-61
2021/12/08 09:00:49;;;;;;;16.92;4.13;;;20.30;52.40;;;;;;6173803;22;92933;-63
2021/12/08 09:03:21;;;;;;;18.45;3.95;;;20.30;52.30;;;;;;6174290;22;94082;-61
2021/12/08 09:05:55;;;;;;;18.52;3.70;;;20.30;52.30;;;;;;6155615;22;94440;-62
2021/12/08 09:08:24;;;;;;;18.50;3.50;;;20.20;52.00;;;;;;6177110;22;93019;-63
2021/12/08 09:10:54;;;;;;;17.15;3.47;;;20.20;51.90;;;;;;6173174;22;92701;-63
2021/12/08 09:13:35;;;;;;;13.68;3.28;;;20.20;51.80;;;;;;6174591;22;93629;-63
2021/12/08 09:16:08;;;;;;;10.10;3.17;;;20.20;52.00;;;;;;6167709;22;92710;-58
2021/12/08 09:18:50;;;;;;;10.65;2.83;;;20.10;52.10;;;;;;6173753;22;92844;-59
2021/12/08 09:21:29;;;;;;;13.68;3.08;;;20.20;52.60;;;;;;6175024;22;92360;-67
2021/12/08 09:24:08;;;;;;;12.05;3.53;;;20.20;53.10;;;;;;6174842;22;92807;-64
2021/12/08 09:26:40;;;;;;;14.55;3.50;;;20.20;53.30;;;;;;6173518;22;95479;-64
2021/12/08 09:29:23;;;;;;;14.85;2.42;;;20.10;53.50;;;;;;6172872;22;93420;-58
2021/12/08 09:32:08;;;;;;;14.70;3.13;;;20.20;53.80;;;;;;6173681;22;92019;-58
2021/12/08 09:34:45;;;;;;;9.63;2.78;;;20.20;53.30;;;;;;6173733;22;94455;-59
2021/12/08 09:37:15;;;;;;;11.13;3.05;;;20.20;52.90;;;;;;6173339;22;94619;-62
2021/12/08 09:39:46;;;;;;;9.18;2.35;;;20.20;52.90;;;;;;6174751;22;92805;-61
2021/12/08 09:42:40;;;;;;;13.45;3.20;;;20.20;52.50;;;;;;6172205;22;93014;-63
2021/12/08 09:45:12;;;;;;;10.25;2.97;;;20.20;52.60;;;;;;6172474;22;93799;-65
2021/12/08 09:47:37;;;;;;;9.40;2.40;;;20.20;52.60;;;;;;6169522;22;95846;-62
2021/12/08 09:50:06;;;;;;;7.55;1.80;;;20.20;52.60;;;;;;6174076;22;92854;-59
2021/12/08 09:52:34;;;;;;;7.10;2.20;;;20.20;52.40;;;;;;6173541;22;92287;-61
2021/12/08 09:55:02;;;;;;;6.85;2.00;;;20.20;52.10;;;;;;6171920;22;95158;-60
2021/12/08 09:57:29;;;;;;;7.40;1.98;;;20.20;51.80;;;;;;6172462;22;97490;-58
2021/12/08 09:59:56;;;;;;;10.32;2.55;;;20.20;51.50;;;;;;6173638;22;92763;-60
2021/12/08 10:02:30;;;;;;;6.60;1.77;;;20.20;51.00;;;;;;6173757;22;92771;-61
2021/12/08 10:04:58;;;;;;;6.53;2.25;;;20.10;50.60;;;;;;6171948;22;94589;-59
2021/12/08 10:07:25;;;;;;;8.57;1.67;;;20.20;50.60;;;;;;6170989;22;95182;-59
2021/12/08 10:09:51;;;;;;;8.77;1.92;;;20.10;50.60;;;;;;6174416;22;92717;-60
2021/12/08 10:12:17;;;;;;;9.18;1.98;;;20.10;52.50;;;;;;6173139;22;91823;-59
2021/12/08 10:14:46;;;;;;;9.98;2.00;;;20.10;51.90;;;;;;6173747;22;95184;-59
2021/12/08 10:17:13;;;;;;;7.88;1.83;;;20.10;52.00;;;;;;6173002;22;93052;-60
2021/12/08 10:19:39;;;;;;;6.20;1.60;;;20.10;52.30;;;;;;6174052;22;93107;-60
2021/12/08 10:22:16;;;;;;;5.43;1.60;;;20.10;52.70;;;;;;6174166;22;92650;-59
2021/12/08 10:24:42;;;;;;;8.23;1.58;;;20.10;52.90;;;;;;6174617;22;93718;-60
2021/12/08 10:27:08;;;;;;;6.88;1.77;;;20.20;53.20;;;;;;6173322;22;93215;-60
2021/12/08 10:29:35;;;;;;;7.57;2.15;;;20.20;53.40;;;;;;6173288;22;92448;-57
2021/12/08 10:32:03;;;;;;;6.63;2.03;;;20.20;53.70;;;;;;6172645;22;92611;-69
2021/12/08 10:34:41;;;;;;;6.90;1.95;;;20.20;54.10;;;;;;6172640;22;93100;-67
2021/12/08 10:37:18;;;;;;;2.67;1.20;;;20.20;54.10;;;;;;6173641;22;92388;-59
2021/12/08 10:39:51;;;;;;;4.38;1.45;;;20.30;55.00;;;;;;6174526;22;92226;-59
2021/12/08 10:42:26;;;;;;;7.90;1.95;;;20.30;54.00;;;;;;6176038;22;92892;-60
2021/12/08 10:47:37;;;;;;;4.47;1.60;;;20.30;52.80;;;;;;6175812;22;93596;-61
2021/12/08 10:56:10;;;;;;;5.97;2.10;;;20.40;51.80;;;;;;6175174;22;92811;-60
2021/12/08 10:58:43;;;;;;;5.32;1.40;;;20.40;51.60;;;;;;6174766;22;93965;-59
2021/12/08 11:01:11;;;;;;;5.53;1.13;;;20.40;51.40;;;;;;6177399;22;93054;-59
2021/12/08 11:03:38;;;;;;;3.70;1.38;;;20.40;51.30;;;;;;6177799;22;91996;-60
2021/12/08 11:06:04;;;;;;;7.68;1.33;;;20.40;51.10;;;;;;6176005;22;93616;-55
2021/12/08 11:08:41;;;;;;;3.80;1.30;;;20.40;51.00;;;;;;6176679;22;93376;-59
2021/12/08 11:11:22;;;;;;;2.83;0.93;;;20.40;50.90;;;;;;6175359;22;93795;-59
2021/12/08 11:13:57;;;;;;;5.18;1.20;;;20.50;50.80;;;;;;6176538;22;92295;-55
2021/12/08 11:16:23;;;;;;;5.32;1.15;;;20.50;50.60;;;;;;6175530;22;92809;-56
2021/12/08 11:18:50;;;;;;;4.93;1.50;;;20.60;50.50;;;;;;6175387;22;93152;-59
2021/12/08 11:21:20;;;;;;;4.00;1.60;;;20.60;50.40;;;;;;6177694;22;92639;-59
2021/12/08 11:23:49;;;;;;;2.42;0.80;;;20.60;50.10;;;;;;6176425;22;92809;-60
2021/12/08 11:26:29;;;;;;;6.45;1.33;;;20.70;50.00;;;;;;6176253;22;94034;-60
2021/12/08 11:29:33;;;;;;;5.88;1.45;;;20.70;49.90;;;;;;6176492;22;92169;-59
2021/12/08 11:32:02;;;;;;;6.38;1.30;;;20.70;49.60;;;;;;6052991;23;92792;-55
2021/12/08 11:34:29;;;;;;;5.10;1.20;;;20.80;49.40;;;;;;6153264;22;92072;-59
2021/12/08 11:37:01;;;;;;;4.07;1.00;;;20.70;49.30;;;;;;6173849;22;94051;-58
2021/12/08 11:39:30;;;;;;;6.05;1.65;;;20.70;49.30;;;;;;6173903;22;93269;-59
2021/12/08 11:41:59;;;;;;;6.60;1.52;;;20.70;49.20;;;;;;6174822;22;92083;-58
2021/12/08 11:44:30;;;;;;;4.70;1.30;;;20.70;49.20;;;;;;6174643;22;92614;-58
2021/12/08 11:47:03;;;;;;;3.78;1.10;;;20.70;49.10;;;;;;6174801;22;93100;-59
2021/12/08 11:49:30;;;;;;;4.05;1.33;;;20.60;49.10;;;;;;6175219;22;93232;-60
2021/12/08 11:52:06;;;;;;;4.25;1.58;;;20.60;49.30;;;;;;6176374;22;92872;-59
2021/12/08 11:54:41;;;;;;;7.50;1.65;;;20.60;49.40;;;;;;6177575;22;91931;-58
2021/12/08 11:57:11;;;;;;;7.28;1.98;;;20.60;49.50;;;;;;6175077;22;94420;-58
2021/12/08 12:00:08;;;;;;;4.88;1.50;;;20.50;49.60;;;;;;6175044;22;93864;-56
2021/12/08 12:03:00;;;;;;;5.18;1.70;;;20.50;49.50;;;;;;6151577;22;93530;-59
2021/12/08 12:05:40;;;;;;;4.47;1.70;;;20.50;49.70;;;;;;6176235;22;92905;-60
2021/12/08 12:08:10;;;;;;;8.02;1.70;;;20.40;49.60;;;;;;6176555;22;93149;-56
2021/12/08 12:10:41;;;;;;;8.60;1.90;;;20.40;49.70;;;;;;6176001;22;92653;-60
2021/12/08 12:13:08;;;;;;;10.13;2.65;;;20.40;49.80;;;;;;6176967;22;92908;-56
2021/12/08 12:15:35;;;;;;;5.72;1.50;;;20.40;49.80;;;;;;6176661;22;92299;-57
2021/12/08 12:18:01;;;;;;;6.45;1.58;;;20.40;50.40;;;;;;6175971;22;93640;-60
2021/12/08 12:20:40;;;;;;;7.88;2.17;;;20.40;50.00;;;;;;6176549;22;92582;-58
2021/12/08 12:23:27;;;;;;;10.05;1.77;;;20.40;50.10;;;;;;6177302;22;92278;-61
2021/12/08 12:26:11;;;;;;;8.23;2.03;;;20.40;50.20;;;;;;6176462;22;92921;-59
2021/12/08 12:28:37;;;;;;;10.50;2.50;;;20.40;50.20;;;;;;6173736;22;95319;-58
2021/12/08 12:31:08;;;;;;;7.43;1.75;;;20.40;50.30;;;;;;6174622;22;93159;-59
2021/12/08 12:36:00;;;;;;;6.80;2.05;;;20.40;50.50;;;;;;6173732;22;92932;-61
2021/12/08 12:38:38;;;;;;;9.38;2.33;;;20.40;50.50;;;;;;6174270;22;93081;-61
2021/12/08 12:41:06;;;;;;;7.07;1.80;;;20.40;50.60;;;;;;6175105;22;92915;-61
2021/12/08 12:43:38;;;;;;;9.23;1.85;;;20.40;50.70;;;;;;6175099;22;92417;-58
2021/12/08 12:46:14;;;;;;;4.57;1.73;;;20.40;50.70;;;;;;6175772;22;91532;-60
2021/12/08 12:48:40;;;;;;;5.70;1.75;;;20.40;50.80;;;;;;6176595;22;93422;-59
2021/12/08 12:51:10;;;;;;;6.78;2.10;;;20.40;50.90;;;;;;6175587;22;92887;-60
2021/12/08 12:53:55;;;;;;;6.68;1.98;;;20.30;51.00;;;;;;6175809;22;93589;-61
2021/12/08 12:56:46;;;;;;;5.68;2.03;;;20.30;51.10;;;;;;6176063;22;92069;-59
2021/12/08 12:59:21;;;;;;;9.07;2.15;;;20.30;51.10;;;;;;6174753;22;92498;-61
2021/12/08 13:02:07;;;;;;;9.40;1.98;;;20.30;51.10;;;;;;6175823;22;92708;-63
2021/12/08 13:04:35;;;;;;;8.02;2.00;;;20.30;51.00;;;;;;6176222;22;92412;-60
2021/12/08 13:07:06;;;;;;;6.47;1.77;;;20.30;51.00;;;;;;6175844;22;92069;-59
2021/12/08 13:09:42;;;;;;;6.63;1.88;;;20.30;51.50;;;;;;6175241;22;93706;-59
2021/12/08 13:12:12;;;;;;;7.50;1.90;;;20.30;51.30;;;;;;6175244;22;92792;-54
2021/12/08 13:14:40;;;;;;;6.32;1.50;;;20.30;51.20;;;;;;6175162;22;92163;-59
2021/12/08 13:17:24;;;;;;;6.57;1.60;;;20.40;51.10;;;;;;6176361;22;92534;-59
2021/12/08 13:19:59;;;;;;;5.82;1.63;;;20.30;51.10;;;;;;6175450;22;93769;-59
2021/12/08 13:22:55;;;;;;;4.78;1.48;;;20.40;51.10;;;;;;6175143;22;93640;-58
2021/12/08 13:25:48;;;;;;;7.85;1.73;;;20.30;51.10;;;;;;6176595;22;92716;-59
2021/12/08 13:28:35;;;;;;;11.23;2.80;;;20.30;51.10;;;;;;6172033;22;92427;-57
2021/12/08 13:31:20;;;;;;;4.95;1.50;;;20.30;51.20;;;;;;6172654;22;92582;-57
2021/12/08 13:33:53;;;;;;;4.15;1.52;;;20.30;51.30;;;;;;6172837;22;92079;-59
2021/12/08 13:36:31;;;;;;;7.35;2.00;;;20.20;51.40;;;;;;6173077;22;92598;-58
2021/12/08 13:38:57;;;;;;;4.53;1.45;;;20.20;51.40;;;;;;6173687;22;92027;-55
2021/12/08 13:41:27;;;;;;;6.07;1.50;;;20.20;51.60;;;;;;6173740;22;93029;-59
2021/12/08 13:43:54;;;;;;;5.65;1.63;;;20.20;51.60;;;;;;6173255;22;93292;-58
2021/12/08 13:46:47;;;;;;;6.90;1.80;;;20.20;51.70;;;;;;6172727;22;93686;-59
2021/12/08 13:49:18;;;;;;;10.15;2.45;;;20.20;51.90;;;;;;6172833;22;93030;-59
2021/12/08 13:52:07;;;;;;;8.27;1.98;;;20.20;52.10;;;;;;6171432;22;93279;-56
2021/12/08 13:54:56;;;;;;;6.80;1.73;;;20.10;52.20;;;;;;6153218;22;92839;-55
2021/12/08 13:57:34;;;;;;;5.57;2.20;;;20.20;52.30;;;;;;6172866;22;92544;-62
2021/12/08 14:00:18;;;;;;;5.85;1.60;;;20.10;52.80;;;;;;6164551;22;92677;-59